createdAt,value
2022-07-25T00:00:09.254Z,2.88
2022-07-25T00:02:37.317Z,3.55
2022-07-25T00:05:07.255Z,3.05
2022-07-25T00:07:35.066Z,3.20
2022-07-25T00:10:02.949Z,3.00
2022-07-25T00:12:30.824Z,2.90
2022-07-25T00:14:58.664Z,2.92
2022-07-25T00:17:26.544Z,3.20
2022-07-25T00:19:54.398Z,3.05
2022-07-25T00:22:23.697Z,2.95
2022-07-25T00:24:51.883Z,2.83
2022-07-25T00:27:19.711Z,3.10
2022-07-25T00:29:47.472Z,3.17
2022-07-25T00:32:16.267Z,3.70
2022-07-25T00:34:44.478Z,3.28
2022-07-25T00:37:12.440Z,3.40
2022-07-25T00:39:41.736Z,3.55
2022-07-25T00:42:09.650Z,3.40
2022-07-25T00:44:37.443Z,3.50
2022-07-25T00:47:05.423Z,3.50
2022-07-25T00:49:33.237Z,3.72
2022-07-25T00:52:01.645Z,3.53
2022-07-25T00:54:30.193Z,3.50
2022-07-25T00:56:59.356Z,4.15
2022-07-25T00:59:27.163Z,3.75
2022-07-25T01:01:55.643Z,3.00
2022-07-25T01:04:23.663Z,3.33
2022-07-25T01:06:51.824Z,3.72
2022-07-25T01:09:21.498Z,3.53
2022-07-25T01:11:49.424Z,3.70
2022-07-25T01:14:18.566Z,3.83
2022-07-25T01:16:46.490Z,4.55
2022-07-25T01:19:14.290Z,3.50
2022-07-25T01:21:43.571Z,4.28
2022-07-25T01:24:12.312Z,3.38
2022-07-25T01:26:40.212Z,4.40
2022-07-25T01:29:08.152Z,4.35
2022-07-25T01:31:37.047Z,4.00
2022-07-25T01:34:05.773Z,3.78
2022-07-25T01:36:33.940Z,4.43
2022-07-25T01:39:03.055Z,3.88
2022-07-25T01:41:30.962Z,4.00
2022-07-25T01:43:58.826Z,4.32
2022-07-25T01:46:26.809Z,4.43
2022-07-25T01:48:54.628Z,4.68
2022-07-25T01:51:22.759Z,3.85
2022-07-25T01:53:54.431Z,4.20
2022-07-25T01:56:23.563Z,5.18
2022-07-25T01:58:51.751Z,4.20
2022-07-25T02:01:21.831Z,4.30
2022-07-25T02:03:50.501Z,4.13
2022-07-25T02:06:19.108Z,4.10
2022-07-25T02:08:47.004Z,4.60
2022-07-25T02:11:14.890Z,3.30
2022-07-25T02:13:44.639Z,4.03
2022-07-25T02:16:12.658Z,4.00
2022-07-25T02:18:40.544Z,4.05
2022-07-25T02:21:13.893Z,3.85
2022-07-25T02:23:43.539Z,4.10
2022-07-25T02:26:11.575Z,4.95
2022-07-25T02:28:39.583Z,3.88
2022-07-25T02:31:13.382Z,3.85
2022-07-25T02:33:43.476Z,5.13
2022-07-25T02:36:11.939Z,4.88
2022-07-25T02:38:39.956Z,4.60
2022-07-25T02:41:08.297Z,4.07
2022-07-25T02:43:36.128Z,4.38
2022-07-25T02:46:04.115Z,4.10
2022-07-25T02:48:33.512Z,3.95
2022-07-25T02:51:01.300Z,3.45
2022-07-25T02:53:55.584Z,3.85
2022-07-25T02:56:16.894Z,4.13
2022-07-25T02:58:45.095Z,4.30
2022-07-25T03:01:13.247Z,3.20
2022-07-25T03:03:42.496Z,4.20
2022-07-25T03:06:10.450Z,4.15
2022-07-25T03:08:38.242Z,3.60
2022-07-25T03:11:06.096Z,4.10
2022-07-25T03:13:34.130Z,3.95
2022-07-25T03:16:02.151Z,3.90
2022-07-25T03:18:30.020Z,4.03
2022-07-25T03:20:59.458Z,3.25
2022-07-25T03:23:28.397Z,3.28
2022-07-25T03:25:56.867Z,2.95
2022-07-25T03:28:25.329Z,3.55
2022-07-25T03:30:53.485Z,3.03
2022-07-25T03:33:22.545Z,3.30
2022-07-25T03:35:51.008Z,2.90
2022-07-25T03:38:20.342Z,3.60
2022-07-25T03:40:48.223Z,3.20
2022-07-25T03:43:16.127Z,2.92
2022-07-25T03:45:44.372Z,3.00
2022-07-25T03:48:12.355Z,3.40
2022-07-25T03:50:40.355Z,3.65
2022-07-25T03:53:08.172Z,3.00
2022-07-25T03:55:40.368Z,3.25
2022-07-25T03:58:08.504Z,2.97
2022-07-25T04:00:36.574Z,3.22
2022-07-25T04:03:05.048Z,3.20
2022-07-25T04:05:32.845Z,3.20
2022-07-25T04:08:00.830Z,2.70
2022-07-25T04:10:28.837Z,2.97
2022-07-25T04:12:58.051Z,2.70
2022-07-25T04:15:25.999Z,2.67
2022-07-25T04:17:53.830Z,2.90
2022-07-25T04:20:23.321Z,3.00
2022-07-25T04:22:51.181Z,3.13
2022-07-25T04:25:19.023Z,3.17
2022-07-25T04:27:46.760Z,3.40
2022-07-25T04:30:24.685Z,2.85
2022-07-25T04:32:53.965Z,3.20
2022-07-25T04:35:22.311Z,3.20
2022-07-25T04:37:50.536Z,3.22
2022-07-25T04:40:18.545Z,2.85
2022-07-25T04:42:46.469Z,2.60
2022-07-25T04:45:17.786Z,2.97
2022-07-25T04:47:46.158Z,3.00
2022-07-25T04:50:13.976Z,2.90
2022-07-25T04:52:41.843Z,2.83
2022-07-25T04:55:10.592Z,2.70
2022-07-25T04:57:38.636Z,2.95
2022-07-25T05:00:08.897Z,3.10
2022-07-25T05:02:38.637Z,2.95
2022-07-25T05:05:08.489Z,2.50
2022-07-25T05:07:49.229Z,3.20
2022-07-25T05:10:17.027Z,4.40
2022-07-25T05:12:44.966Z,2.85
2022-07-25T05:15:13.645Z,3.00
2022-07-25T05:17:43.157Z,2.90
2022-07-25T05:20:12.135Z,3.50
2022-07-25T05:22:40.047Z,3.38
2022-07-25T05:25:09.661Z,2.80
2022-07-25T05:27:37.646Z,3.70
2022-07-25T05:30:07.175Z,3.47
2022-07-25T05:32:36.683Z,3.72
2022-07-25T05:35:08.840Z,3.75
2022-07-25T05:37:37.323Z,4.07
2022-07-25T05:40:06.700Z,3.42
2022-07-25T05:42:35.011Z,3.63
2022-07-25T05:45:03.137Z,3.20
2022-07-25T05:47:31.231Z,3.58
2022-07-25T05:49:59.268Z,3.50
2022-07-25T05:52:28.496Z,3.60
2022-07-25T05:54:56.383Z,4.30
2022-07-25T05:57:24.263Z,4.00
2022-07-25T05:59:52.013Z,4.07
2022-07-25T06:02:19.998Z,4.25
2022-07-25T06:04:47.965Z,4.30
2022-07-25T06:07:17.111Z,3.63
2022-07-25T06:09:46.489Z,4.00
2022-07-25T06:12:14.992Z,4.32
2022-07-25T06:14:43.682Z,3.50
2022-07-25T06:17:11.559Z,3.95
2022-07-25T06:19:39.380Z,4.15
2022-07-25T06:22:08.089Z,4.15
2022-07-25T06:24:36.042Z,3.58
2022-07-25T06:27:05.709Z,3.88
2022-07-25T06:29:33.485Z,4.82
2022-07-25T06:32:03.632Z,4.20
2022-07-25T06:34:32.072Z,4.10
2022-07-25T06:37:00.028Z,3.83
2022-07-25T06:39:29.056Z,3.75
2022-07-25T06:41:57.434Z,4.18
2022-07-25T06:44:35.006Z,3.70
2022-07-25T06:47:03.153Z,3.60
2022-07-25T06:49:30.951Z,4.03
2022-07-25T06:51:58.836Z,4.25
2022-07-25T06:54:26.661Z,4.82
2022-07-25T06:56:55.381Z,5.20
2022-07-25T06:59:23.204Z,4.70
2022-07-25T07:01:52.353Z,4.73
2022-07-25T07:04:20.435Z,4.73
2022-07-25T07:06:48.278Z,5.00
2022-07-25T07:09:16.180Z,5.17
2022-07-25T07:11:43.995Z,3.93
2022-07-25T07:14:11.784Z,4.93
2022-07-25T07:16:41.353Z,4.77
2022-07-25T07:19:12.087Z,4.90
2022-07-25T07:21:40.004Z,5.10
2022-07-25T07:24:23.688Z,4.23
2022-07-25T07:26:53.498Z,5.20
2022-07-25T07:29:22.094Z,5.40
2022-07-25T07:31:50.797Z,5.70
2022-07-25T07:34:20.575Z,4.80
2022-07-25T07:36:48.674Z,4.80
2022-07-25T07:39:17.146Z,5.40
2022-07-25T07:41:45.302Z,5.37
2022-07-25T07:44:13.151Z,4.50
2022-07-25T07:46:41.233Z,5.40
2022-07-25T07:49:09.691Z,5.53
2022-07-25T07:51:39.420Z,5.77
2022-07-25T07:54:25.034Z,5.70
2022-07-25T07:56:53.065Z,6.20
2022-07-25T07:59:20.910Z,6.03
2022-07-25T08:01:48.831Z,5.30
2022-07-25T08:04:17.034Z,6.97
2022-07-25T08:06:46.252Z,6.13
2022-07-25T08:09:14.190Z,6.50
2022-07-25T08:11:42.320Z,5.47
2022-07-25T08:14:10.503Z,5.50
2022-07-25T08:16:38.983Z,6.20
2022-07-25T08:19:06.943Z,5.03
2022-07-25T08:21:34.930Z,5.47
2022-07-25T08:24:04.791Z,6.10
2022-07-25T08:26:37.143Z,5.53
2022-07-25T08:29:18.616Z,6.10
2022-07-25T08:31:47.610Z,6.13
2022-07-25T08:34:15.918Z,6.60
2022-07-25T08:36:44.308Z,6.30
2022-07-25T08:39:15.903Z,6.30
2022-07-25T08:41:44.125Z,5.13
2022-07-25T08:44:14.968Z,6.80
2022-07-25T08:46:44.412Z,6.17
2022-07-25T08:49:12.841Z,6.13
2022-07-25T08:51:40.897Z,6.37
2022-07-25T08:54:09.527Z,6.43
2022-07-25T08:56:39.250Z,6.50
2022-07-25T08:59:07.081Z,5.47
2022-07-25T09:01:35.267Z,5.40
2022-07-25T09:04:04.766Z,5.80
2022-07-25T09:06:32.893Z,5.10
2022-07-25T09:09:01.409Z,5.17
2022-07-25T09:11:31.270Z,5.17
2022-07-25T09:14:03.042Z,5.30
2022-07-25T09:16:34.920Z,6.50
2022-07-25T09:19:14.498Z,5.93
2022-07-25T09:21:44.068Z,5.73
2022-07-25T09:24:14.110Z,5.37
2022-07-25T09:26:47.333Z,4.90
2022-07-25T09:29:25.421Z,6.63
2022-07-25T09:31:55.315Z,5.60
2022-07-25T09:34:35.118Z,5.60
2022-07-25T09:37:04.706Z,5.53
2022-07-25T09:39:42.186Z,5.70
2022-07-25T09:42:22.656Z,6.23
2022-07-25T09:45:07.210Z,5.93
2022-07-25T09:47:38.062Z,6.37
2022-07-25T09:50:07.949Z,6.07
2022-07-25T09:52:36.767Z,6.63
2022-07-25T09:55:06.670Z,6.03
2022-07-25T09:57:34.692Z,6.53
2022-07-25T10:00:05.638Z,5.87
2022-07-25T10:02:49.934Z,5.63
2022-07-25T10:05:24.771Z,6.50
2022-07-25T10:07:55.518Z,6.03
2022-07-25T10:10:27.199Z,6.40
2022-07-25T10:13:10.456Z,5.77
2022-07-25T10:15:51.500Z,6.53
2022-07-25T10:18:21.467Z,5.97
2022-07-25T10:20:50.933Z,6.57
2022-07-25T10:23:24.263Z,6.77
2022-07-25T10:26:11.382Z,6.37
2022-07-25T10:28:42.592Z,5.90
2022-07-25T10:31:24.315Z,6.87
2022-07-25T10:33:55.737Z,6.43
2022-07-25T10:36:25.453Z,6.33
2022-07-25T10:38:57.146Z,6.83
2022-07-25T10:41:27.357Z,6.33
2022-07-25T10:43:58.840Z,7.23
2022-07-25T10:46:30.929Z,6.40
2022-07-25T10:49:04.030Z,6.57
2022-07-25T10:51:37.109Z,6.93
2022-07-25T10:54:16.708Z,6.30
2022-07-25T10:56:58.770Z,6.37
2022-07-25T10:59:33.371Z,6.50
2022-07-25T11:02:03.310Z,5.90
2022-07-25T11:04:31.728Z,6.33
2022-07-25T11:07:08.733Z,6.10
2022-07-25T11:09:37.103Z,6.50
2022-07-25T11:12:05.857Z,6.20
2022-07-25T11:14:37.473Z,7.10
2022-07-25T11:17:15.609Z,6.10
2022-07-25T11:19:44.821Z,6.00
2022-07-25T11:22:13.391Z,5.90
2022-07-25T11:24:43.020Z,6.90
2022-07-25T11:27:14.758Z,7.03
2022-07-25T11:29:42.629Z,6.37
2022-07-25T11:32:14.042Z,5.63
2022-07-25T11:34:45.123Z,5.30
2022-07-25T11:37:15.151Z,6.20
2022-07-25T11:39:45.736Z,6.10
2022-07-25T11:42:16.698Z,6.70
2022-07-25T11:44:47.985Z,5.70
2022-07-25T11:47:26.495Z,5.63
2022-07-25T11:49:56.520Z,6.17
2022-07-25T11:52:29.763Z,6.77
2022-07-25T11:55:00.462Z,6.20
2022-07-25T11:57:30.701Z,6.63
2022-07-25T12:00:00.891Z,6.73
2022-07-25T12:02:32.083Z,6.40
2022-07-25T12:05:02.244Z,6.93
2022-07-25T12:07:41.681Z,7.17
2022-07-25T12:10:12.213Z,6.60
2022-07-25T12:12:51.151Z,6.20
2022-07-25T12:15:21.600Z,6.37
2022-07-25T12:17:51.904Z,7.40
2022-07-25T12:20:21.539Z,5.90
2022-07-25T12:22:50.495Z,6.63
2022-07-25T12:25:18.818Z,5.70
2022-07-25T12:27:47.115Z,6.70
2022-07-25T12:30:16.378Z,6.83
2022-07-25T12:32:46.137Z,6.10
2022-07-25T12:35:16.497Z,5.77
2022-07-25T12:37:45.470Z,6.10
2022-07-25T12:40:14.701Z,6.50
2022-07-25T12:42:42.800Z,7.23
2022-07-25T12:45:11.509Z,7.27
2022-07-25T12:47:39.865Z,6.00
2022-07-25T12:50:08.501Z,6.90
2022-07-25T12:52:38.850Z,6.37
2022-07-25T12:55:08.014Z,6.67
2022-07-25T12:57:37.023Z,6.30
2022-07-25T13:00:05.859Z,6.27
2022-07-25T13:02:33.805Z,6.50
2022-07-25T13:05:01.917Z,7.03
2022-07-25T13:07:29.848Z,5.50
2022-07-25T13:09:58.908Z,7.00
2022-07-25T13:12:26.851Z,6.50
2022-07-25T13:14:54.686Z,6.20
2022-07-25T13:17:27.330Z,6.50
2022-07-25T13:19:56.198Z,6.93
2022-07-25T13:22:24.803Z,7.03
2022-07-25T13:24:52.750Z,5.67
2022-07-25T13:27:23.164Z,6.50
2022-07-25T13:29:54.274Z,6.87
2022-07-25T13:32:24.332Z,5.60
2022-07-25T13:34:52.913Z,6.23
2022-07-25T13:37:21.049Z,5.30
2022-07-25T13:39:48.925Z,6.17
2022-07-25T13:42:16.970Z,6.20
2022-07-25T13:44:46.131Z,6.43
2022-07-25T13:47:13.982Z,6.37
2022-07-25T13:49:41.980Z,6.80
2022-07-25T13:52:10.168Z,6.03
2022-07-25T13:54:38.263Z,6.13
2022-07-25T13:57:06.229Z,6.87
2022-07-25T13:59:34.021Z,6.37
2022-07-25T14:02:03.288Z,6.73
2022-07-25T14:04:31.740Z,6.70
2022-07-25T14:07:00.934Z,6.27
2022-07-25T14:09:28.863Z,6.80
2022-07-25T14:11:56.834Z,5.97
2022-07-25T14:14:24.864Z,6.23
2022-07-25T14:16:53.111Z,6.50
2022-07-25T14:19:24.088Z,7.07
2022-07-25T14:21:52.015Z,6.43
2022-07-25T14:24:20.052Z,6.63
2022-07-25T14:26:49.168Z,6.47
2022-07-25T14:29:17.051Z,6.40
2022-07-25T14:31:45.994Z,6.40
2022-07-25T14:34:15.714Z,7.10
2022-07-25T14:36:48.011Z,6.23
2022-07-25T14:39:16.865Z,6.90
2022-07-25T14:41:44.920Z,5.60
2022-07-25T14:44:13.323Z,6.33
2022-07-25T14:46:42.335Z,7.37
2022-07-25T14:49:13.154Z,7.60
2022-07-25T14:51:41.178Z,6.30
2022-07-25T14:54:10.373Z,7.07
2022-07-25T14:56:38.454Z,7.03
2022-07-25T14:59:08.180Z,7.13
2022-07-25T15:01:37.022Z,6.97
2022-07-25T15:04:05.193Z,6.40
2022-07-25T15:06:33.253Z,6.47
2022-07-25T15:09:01.059Z,6.73
2022-07-25T15:11:30.438Z,6.60
2022-07-25T15:13:58.349Z,6.20
2022-07-25T15:16:26.256Z,6.77
2022-07-25T15:19:17.878Z,7.50
2022-07-25T15:21:42.673Z,6.13
2022-07-25T15:24:10.430Z,6.47
2022-07-25T15:26:39.737Z,6.73
2022-07-25T15:29:09.767Z,6.67
2022-07-25T15:31:40.621Z,7.33
2022-07-25T15:34:09.189Z,7.00
2022-07-25T15:36:37.127Z,6.20
2022-07-25T15:39:05.266Z,6.90
2022-07-25T15:41:33.364Z,6.90
2022-07-25T15:44:02.612Z,6.63
2022-07-25T15:46:30.530Z,6.90
2022-07-25T15:48:59.140Z,7.07
2022-07-25T15:51:27.113Z,7.03
2022-07-25T15:53:55.000Z,6.67
2022-07-25T15:56:22.933Z,6.97
2022-07-25T15:58:50.875Z,7.73
2022-07-25T16:01:20.283Z,7.13
2022-07-25T16:03:48.270Z,6.80
2022-07-25T16:06:20.516Z,6.73
2022-07-25T16:08:50.143Z,7.57
2022-07-25T16:11:24.845Z,8.33
2022-07-25T16:13:52.737Z,6.77
2022-07-25T16:16:22.524Z,8.00
2022-07-25T16:18:50.497Z,7.30
2022-07-25T16:21:18.482Z,7.17
2022-07-25T16:23:46.439Z,6.70
2022-07-25T16:26:14.280Z,7.53
2022-07-25T16:28:42.657Z,6.43
2022-07-25T16:31:10.561Z,7.70
2022-07-25T16:33:40.741Z,6.73
2022-07-25T16:36:11.696Z,6.63
2022-07-25T16:38:39.550Z,6.40
2022-07-25T16:41:07.465Z,6.10
2022-07-25T16:43:35.355Z,6.70
2022-07-25T16:46:03.175Z,6.13
2022-07-25T16:48:31.754Z,6.53
2022-07-25T16:51:00.857Z,7.70
2022-07-25T16:53:28.848Z,7.23
2022-07-25T16:55:56.857Z,5.87
2022-07-25T16:58:25.123Z,6.10
2022-07-25T17:00:52.963Z,6.30
2022-07-25T17:03:21.645Z,5.77
2022-07-25T17:05:51.607Z,6.67
2022-07-25T17:08:20.961Z,6.80
2022-07-25T17:10:49.123Z,6.73
2022-07-25T17:13:16.954Z,7.33
2022-07-25T17:15:45.613Z,6.97
2022-07-25T17:18:14.187Z,7.37
2022-07-25T17:20:42.225Z,7.13
2022-07-25T17:23:10.106Z,6.67
2022-07-25T17:25:40.007Z,7.00
2022-07-25T17:28:08.133Z,7.30
2022-07-25T17:30:36.121Z,6.23
2022-07-25T17:33:06.109Z,6.40
2022-07-25T17:35:34.532Z,6.43
2022-07-25T17:38:02.504Z,7.43
2022-07-25T17:40:30.397Z,7.00
2022-07-25T17:42:59.760Z,6.10
2022-07-25T17:45:27.619Z,6.70
2022-07-25T17:47:55.614Z,7.17
2022-07-25T17:50:29.239Z,7.43
2022-07-25T17:52:59.592Z,6.77
2022-07-25T17:55:28.555Z,7.10
2022-07-25T17:57:59.594Z,7.70
2022-07-25T18:00:28.798Z,6.07
2022-07-25T18:02:56.668Z,6.47
2022-07-25T18:05:24.834Z,6.30
2022-07-25T18:07:53.594Z,7.50
2022-07-25T18:10:22.148Z,6.30
2022-07-25T18:12:50.873Z,7.10
2022-07-25T18:15:18.951Z,6.93
2022-07-25T18:17:49.259Z,6.97
2022-07-25T18:20:17.732Z,7.57
2022-07-25T18:22:45.905Z,7.47
2022-07-25T18:25:15.478Z,7.90
2022-07-25T18:27:44.108Z,6.80
2022-07-25T18:30:13.380Z,7.13
2022-07-25T18:32:42.819Z,6.93
2022-07-25T18:35:12.468Z,7.53
2022-07-25T18:37:40.821Z,6.33
2022-07-25T18:40:10.495Z,6.10
2022-07-25T18:42:38.856Z,7.13
2022-07-25T18:45:08.497Z,6.93
2022-07-25T18:47:36.281Z,6.57
2022-07-25T18:50:05.382Z,7.13
2022-07-25T18:52:36.173Z,8.30
2022-07-25T18:55:05.258Z,6.80
2022-07-25T18:57:33.102Z,7.10
2022-07-25T19:00:03.450Z,7.20
2022-07-25T19:02:31.782Z,7.47
2022-07-25T19:04:59.680Z,6.53
2022-07-25T19:07:29.745Z,6.70
2022-07-25T19:09:59.011Z,6.83
2022-07-25T19:12:27.421Z,7.03
2022-07-25T19:14:55.692Z,6.33
2022-07-25T19:17:24.498Z,6.57
2022-07-25T19:19:53.285Z,7.03
2022-07-25T19:22:21.370Z,6.87
2022-07-25T19:24:49.270Z,6.90
2022-07-25T19:27:19.349Z,6.60
2022-07-25T19:29:47.597Z,6.97
2022-07-25T19:32:17.136Z,6.60
2022-07-25T19:34:46.798Z,5.90
2022-07-25T19:37:14.598Z,7.33
2022-07-25T19:39:42.588Z,6.90
2022-07-25T19:42:12.256Z,7.20
2022-07-25T19:44:41.588Z,6.90
2022-07-25T19:47:11.858Z,7.10
2022-07-25T19:49:40.516Z,6.87
2022-07-25T19:52:09.374Z,7.47
2022-07-25T19:54:37.634Z,6.20
2022-07-25T19:57:06.276Z,7.40
2022-07-25T19:59:34.286Z,7.30
2022-07-25T20:02:03.811Z,6.83
2022-07-25T20:04:32.025Z,6.90
2022-07-25T20:07:02.255Z,6.33
2022-07-25T20:09:30.400Z,8.37
2022-07-25T20:11:58.570Z,7.77
2022-07-25T20:14:26.643Z,7.97
2022-07-25T20:16:54.564Z,8.57
2022-07-25T20:19:23.857Z,7.60
2022-07-25T20:21:52.029Z,7.53
2022-07-25T20:24:21.675Z,7.50
2022-07-25T20:26:49.954Z,8.47
2022-07-25T20:29:18.027Z,7.57
2022-07-25T20:31:46.192Z,8.70
2022-07-25T20:34:14.975Z,7.80
2022-07-25T20:36:44.171Z,8.37
2022-07-25T20:39:12.907Z,8.70
2022-07-25T20:41:41.156Z,7.40
2022-07-25T20:44:09.374Z,8.13
2022-07-25T20:46:37.515Z,8.20
2022-07-25T20:49:06.458Z,9.17
2022-07-25T20:51:34.681Z,8.50
2022-07-25T20:54:04.441Z,8.17
2022-07-25T20:56:32.317Z,9.73
2022-07-25T20:59:00.471Z,10.20
2022-07-25T21:01:28.352Z,10.13
2022-07-25T21:03:56.215Z,10.30
2022-07-25T21:06:27.277Z,12.17
2022-07-25T21:08:55.447Z,13.03
2022-07-25T21:11:25.182Z,12.18
2022-07-25T21:13:53.104Z,12.90
2022-07-25T21:16:20.944Z,12.97
2022-07-25T21:18:49.159Z,14.10
2022-07-25T21:21:17.599Z,15.57
2022-07-25T21:23:45.448Z,16.13
2022-07-25T21:26:14.529Z,18.10
2022-07-25T21:28:44.496Z,17.83
2022-07-25T21:31:12.717Z,19.17
2022-07-25T21:33:42.288Z,20.40
2022-07-25T21:36:11.009Z,23.75
2022-07-25T21:38:38.857Z,25.30
2022-07-25T21:41:07.540Z,28.45
2022-07-25T21:43:35.442Z,31.13
2022-07-25T21:46:04.645Z,29.13
2022-07-25T21:48:50.223Z,29.80
2022-07-25T21:51:19.083Z,27.37
2022-07-25T21:53:52.529Z,25.70
2022-07-25T21:56:20.789Z,23.80
2022-07-25T21:58:48.925Z,25.48
2022-07-25T22:01:19.725Z,25.30
2022-07-25T22:03:47.776Z,25.55
2022-07-25T22:06:15.612Z,24.88
2022-07-25T22:08:43.577Z,26.25
2022-07-25T22:11:16.028Z,26.98
2022-07-25T22:13:59.650Z,26.98
2022-07-25T22:16:28.819Z,24.75
2022-07-25T22:18:57.238Z,25.83
2022-07-25T22:21:25.251Z,24.85
2022-07-25T22:23:53.223Z,24.80
2022-07-25T22:26:21.030Z,26.27
2022-07-25T22:28:49.800Z,25.95
2022-07-25T22:31:18.442Z,27.73
2022-07-25T22:33:48.293Z,24.60
2022-07-25T22:36:16.644Z,28.70
2022-07-25T22:38:44.517Z,27.17
2022-07-25T22:41:12.589Z,27.23
2022-07-25T22:43:56.776Z,30.52
2022-07-25T22:46:26.679Z,31.05
2022-07-25T22:48:55.965Z,27.05
2022-07-25T22:51:24.433Z,27.98
2022-07-25T22:53:52.277Z,26.98
2022-07-25T22:56:20.594Z,32.38
2022-07-25T22:58:48.952Z,34.83
2022-07-25T23:01:17.529Z,39.08
2022-07-25T23:03:46.754Z,67.82
2022-07-25T23:06:16.248Z,66.63
2022-07-25T23:08:44.031Z,62.38
2022-07-25T23:11:11.981Z,71.05
2022-07-25T23:13:39.796Z,61.30
2022-07-25T23:16:10.315Z,61.65
2022-07-25T23:18:38.695Z,58.50
2022-07-25T23:21:06.515Z,60.53
2022-07-25T23:23:36.000Z,64.85
2022-07-25T23:26:03.918Z,71.25
2022-07-25T23:28:31.797Z,74.05
2022-07-25T23:30:59.595Z,75.40
2022-07-25T23:33:30.286Z,82.07
2022-07-25T23:35:59.121Z,84.28
2022-07-25T23:38:27.031Z,83.45
2022-07-25T23:40:56.166Z,80.32
2022-07-25T23:43:34.818Z,78.75
2022-07-25T23:46:11.956Z,76.35
2022-07-25T23:48:39.953Z,72.70
2022-07-25T23:51:07.834Z,74.82
2022-07-25T23:53:36.416Z,72.68
2022-07-25T23:56:06.254Z,76.82
2022-07-25T23:58:34.386Z,80.10
